الصفحة الرئيسية
METAR-TAF:

METAR-TAF

مطار :

أوسكمان, كازاخستان

دائرة عرض: 50-02-10N, خط طول: 082-29-39E, ارتفاع: 286 متر

مراقبة الطقس الحالي

تاريخ ووقت الإصدار 1ساعة و 5 دقيقة قبل الساعة 17:00UTC
ريح 2 عقدةمن اتجاهات متغيرة
درجة الحرارة 21°درجة مئوية
الرطوبة 53%
ضغط 1006 hPa
الرؤية 10 كم أو أكثر
غيوم مفككة على ارتفاع 17000 قدم

METAR: UASK 161700Z VRB01MPS 9999 BKN170 21/11 Q1006 R30/090060 NOSIG RMK QFE730/0973

زمن: 00:05 (18:05 UTC)

توقعات

تاريخ ووقت الإصدار 4ساعات و 2 دقيقة قبل الساعة 14:03UTC
التوقعات صالحة من16 الساعة 15 UTC إلى 16 الساعة 24 UTC
ريح 8 عقدة من الشرق/الجنوب الشرقي
الرؤية 10 كم أو أكثر
غيوم متفرقة على ارتفاع 3000 قدم
غيوم مفككة على ارتفاع 10000 قدم
مؤقت
من 16 الساعة 15 UTC إلى 16 الساعة 21 UTC
ريح 10 عقدة من الجنوب/الجنوب الشرقي تتزايد حتى 19 عقدة
غيوم قليلة على ارتفاع 700 قدم
غيوم مفككة على ارتفاع 2000 قدم, مزنة ركامية.
زخات من الأمطار الخفيفة

TAF: UASK 161403Z 1615/1624 11004MPS 9999 SCT030 BKN100 TEMPO 1615/1621 16005G10MPS -SHRA FEW007 BKN020CB

أرصاد الطقس والتوقعات من أكثر من 4000 مطار (تقارير الطقس للمطار METAR والتنبؤ بالطقس بالمطارTAF).

المحطات المتاحة هي النقط الصفراء والحمراء على الخريطة.

حرك المؤشر فوق النقطة لمعرفة اسم المحطة.

ثم انقر لمعرفة أرصاد وتوقعات الطقس.

لتغيير الخارطة: اضغط على الأزرار الخضراء مع رمز الصليب الأسود للتكبير. على الزر الأخضر مع شرطة للتصغير، أو على الأسهم الخضراء للخرائط المجاورة.


METAR-TAF: